createdAt,value
2018-09-21T00:01:59.777Z,8.20
2018-09-21T00:04:27.267Z,9.07
2018-09-21T00:06:55.328Z,8.57
2018-09-21T00:09:23.442Z,9.10
2018-09-21T00:11:50.958Z,8.43
2018-09-21T00:14:18.573Z,8.13
2018-09-21T00:16:45.934Z,8.27
2018-09-21T00:19:14.034Z,8.70
2018-09-21T00:21:42.923Z,7.80
2018-09-21T00:24:10.355Z,8.50
2018-09-21T00:26:37.714Z,8.10
2018-09-21T00:29:05.090Z,9.13
2018-09-21T00:31:32.457Z,8.30
2018-09-21T00:33:59.803Z,8.53
2018-09-21T00:36:27.184Z,7.83
2018-09-21T00:38:54.722Z,8.20
2018-09-21T00:41:22.200Z,8.73
2018-09-21T00:43:50.491Z,8.20
2018-09-21T00:46:18.040Z,7.30
2018-09-21T00:48:45.513Z,8.43
2018-09-21T00:51:13.316Z,8.00
2018-09-21T00:53:40.654Z,8.23
2018-09-21T00:56:08.054Z,7.33
2018-09-21T00:58:35.509Z,8.07
2018-09-21T01:01:02.990Z,8.00
2018-09-21T01:03:30.588Z,8.20
2018-09-21T01:05:58.403Z,8.20
2018-09-21T01:08:25.831Z,8.40
2018-09-21T01:10:53.484Z,7.30
2018-09-21T01:13:21.031Z,7.43
2018-09-21T01:15:48.520Z,8.10
2018-09-21T01:18:16.106Z,8.30
2018-09-21T01:20:43.781Z,8.90
2018-09-21T01:23:11.251Z,8.57
2018-09-21T01:25:38.709Z,8.60
2018-09-21T01:28:06.891Z,8.33
2018-09-21T01:30:34.464Z,8.40
2018-09-21T01:33:02.106Z,8.07
2018-09-21T01:35:29.610Z,7.53
2018-09-21T01:37:57.244Z,8.67
2018-09-21T01:40:24.813Z,7.93
2018-09-21T01:42:52.343Z,8.20
2018-09-21T01:45:19.897Z,8.57
2018-09-21T01:47:47.418Z,7.40
2018-09-21T01:50:14.939Z,8.30
2018-09-21T01:52:42.483Z,9.00
2018-09-21T01:55:09.928Z,7.63
2018-09-21T01:57:37.383Z,7.67
2018-09-21T02:00:05.003Z,8.30
2018-09-21T02:02:32.466Z,8.67
2018-09-21T02:05:00.050Z,8.77
2018-09-21T02:07:27.472Z,8.07
2018-09-21T02:09:54.951Z,8.17
2018-09-21T02:12:22.551Z,8.10
2018-09-21T02:14:50.565Z,8.40
2018-09-21T02:17:18.281Z,7.90
2018-09-21T02:19:46.590Z,8.17
2018-09-21T02:22:14.126Z,8.67
2018-09-21T02:24:41.619Z,8.60
2018-09-21T02:27:09.070Z,8.33
2018-09-21T02:29:37.284Z,7.73
2018-09-21T02:32:04.871Z,7.77
2018-09-21T02:34:32.348Z,8.13
2018-09-21T02:37:00.014Z,7.77
2018-09-21T02:42:13.475Z,8.47
2018-09-21T02:44:41.263Z,8.23
2018-09-21T02:47:08.753Z,8.37
2018-09-21T02:49:36.261Z,8.67
2018-09-21T02:52:03.736Z,7.97
2018-09-21T02:54:31.323Z,8.60
2018-09-21T02:56:58.914Z,9.13
2018-09-21T02:59:26.443Z,8.40
2018-09-21T03:01:54.053Z,8.17
2018-09-21T03:04:21.588Z,8.00
2018-09-21T03:06:49.159Z,8.53
2018-09-21T03:09:16.620Z,8.93
2018-09-21T03:11:44.177Z,8.27
2018-09-21T03:14:11.767Z,8.00
2018-09-21T03:16:39.211Z,8.90
2018-09-21T03:19:06.649Z,8.10
2018-09-21T03:21:34.147Z,8.40
2018-09-21T03:24:01.534Z,8.13
2018-09-21T03:26:29.051Z,8.00
2018-09-21T03:28:57.661Z,8.13
2018-09-21T03:31:25.095Z,8.03
2018-09-21T03:33:52.613Z,7.70
2018-09-21T03:36:20.140Z,8.43
2018-09-21T03:38:47.775Z,8.20
2018-09-21T03:41:15.417Z,8.63
2018-09-21T03:43:43.412Z,8.87
2018-09-21T03:46:11.036Z,8.57
2018-09-21T03:48:38.447Z,8.57
2018-09-21T03:51:06.299Z,8.20
2018-09-21T03:53:33.954Z,9.13
2018-09-21T03:56:01.547Z,9.03
2018-09-21T03:58:29.235Z,9.20
2018-09-21T04:00:57.148Z,8.37
2018-09-21T04:03:24.753Z,9.00
2018-09-21T04:05:52.168Z,9.10
2018-09-21T04:08:19.705Z,9.43
2018-09-21T04:10:47.252Z,9.17
2018-09-21T04:13:14.923Z,9.50
2018-09-21T04:15:42.408Z,8.07
2018-09-21T04:18:09.980Z,8.50
2018-09-21T04:20:44.027Z,8.93
2018-09-21T04:23:11.633Z,9.33
2018-09-21T04:25:39.201Z,8.27
2018-09-21T04:28:06.679Z,8.50
2018-09-21T04:30:35.346Z,8.70
2018-09-21T04:33:02.998Z,9.13
2018-09-21T04:35:30.443Z,8.03
2018-09-21T04:37:58.805Z,9.23
2018-09-21T04:40:26.335Z,10.37
2018-09-21T04:42:53.883Z,9.80
2018-09-21T04:45:21.306Z,9.33
2018-09-21T04:47:48.771Z,9.10
2018-09-21T04:50:16.440Z,8.27
2018-09-21T04:52:44.023Z,9.10
2018-09-21T04:55:11.661Z,9.80
2018-09-21T04:57:40.075Z,9.10
2018-09-21T05:00:08.463Z,8.80
2018-09-21T05:02:36.416Z,8.90
2018-09-21T05:05:04.068Z,8.60
2018-09-21T05:07:31.676Z,9.27
2018-09-21T05:09:59.204Z,9.70
2018-09-21T05:12:26.675Z,8.80
2018-09-21T05:14:54.551Z,9.80
2018-09-21T05:17:22.009Z,9.23
2018-09-21T05:19:49.507Z,9.00
2018-09-21T05:22:17.136Z,8.90
2018-09-21T05:24:44.962Z,9.80
2018-09-21T05:27:13.032Z,9.97
2018-09-21T05:29:40.986Z,9.93
2018-09-21T05:32:08.821Z,9.17
2018-09-21T05:34:36.607Z,9.93
2018-09-21T05:37:04.805Z,8.60
2018-09-21T05:39:32.709Z,9.00
2018-09-21T05:42:00.521Z,10.37
2018-09-21T05:44:28.245Z,9.57
2018-09-21T05:49:34.395Z,10.33
2018-09-21T05:52:02.845Z,11.37
2018-09-21T05:54:30.571Z,9.73
2018-09-21T05:56:58.480Z,10.37
2018-09-21T05:59:26.442Z,10.03
2018-09-21T06:01:54.302Z,9.10
2018-09-21T06:04:22.036Z,9.43
2018-09-21T06:06:49.823Z,9.67
2018-09-21T06:09:17.624Z,9.77
2018-09-21T06:11:45.127Z,9.37
2018-09-21T06:14:12.963Z,9.90
2018-09-21T06:16:40.863Z,8.60
2018-09-21T06:19:08.596Z,9.33
2018-09-21T06:21:36.314Z,8.83
2018-09-21T06:24:03.996Z,9.20
2018-09-21T06:26:31.488Z,9.90
2018-09-21T06:28:59.708Z,8.50
2018-09-21T06:31:27.237Z,9.60
2018-09-21T06:33:54.589Z,10.53
2018-09-21T06:36:23.658Z,9.37
2018-09-21T06:38:51.353Z,9.30
2018-09-21T06:41:18.996Z,7.93
2018-09-21T06:43:46.668Z,8.93
2018-09-21T06:46:21.506Z,8.87
2018-09-21T06:48:49.587Z,8.90
2018-09-21T06:51:17.473Z,9.37
2018-09-21T06:53:46.367Z,9.13
2018-09-21T06:56:14.294Z,9.23
2018-09-21T06:58:42.725Z,9.70
2018-09-21T07:01:10.682Z,8.90
2018-09-21T07:03:39.193Z,9.40
2018-09-21T07:06:07.441Z,9.70
2018-09-21T07:08:35.369Z,9.07
2018-09-21T07:11:03.287Z,9.30
2018-09-21T07:13:31.047Z,8.83
2018-09-21T07:15:58.855Z,9.73
2018-09-21T07:18:26.430Z,9.57
2018-09-21T07:20:54.093Z,8.97
2018-09-21T07:23:21.845Z,9.07
2018-09-21T07:25:49.647Z,8.80
2018-09-21T07:28:17.181Z,10.00
2018-09-21T07:30:44.937Z,10.13
2018-09-21T07:33:12.457Z,9.13
2018-09-21T07:35:40.076Z,8.90
2018-09-21T07:38:07.569Z,9.30
2018-09-21T07:40:35.177Z,9.00
2018-09-21T07:43:02.960Z,8.63
2018-09-21T07:45:30.738Z,9.63
2018-09-21T07:47:58.576Z,9.30
2018-09-21T07:50:27.835Z,8.70
2018-09-21T07:52:55.714Z,9.30
2018-09-21T07:55:23.806Z,9.47
2018-09-21T07:57:51.434Z,9.30
2018-09-21T08:00:19.004Z,9.30
2018-09-21T08:02:46.897Z,9.00
2018-09-21T08:05:14.821Z,8.70
2018-09-21T08:07:42.381Z,8.83
2018-09-21T08:10:10.120Z,8.73
2018-09-21T08:12:37.690Z,8.27
2018-09-21T08:15:05.397Z,8.90
2018-09-21T08:17:33.051Z,9.60
2018-09-21T08:20:00.698Z,9.10
2018-09-21T08:22:28.266Z,9.37
2018-09-21T08:25:00.100Z,8.77
2018-09-21T08:27:27.561Z,8.93
2018-09-21T08:29:55.242Z,8.73
2018-09-21T08:32:23.084Z,8.60
2018-09-21T08:34:51.110Z,8.30
2018-09-21T08:37:18.889Z,8.37
2018-09-21T08:39:46.321Z,8.13
2018-09-21T08:42:14.146Z,9.10
2018-09-21T08:44:42.065Z,6.87
2018-09-21T08:47:09.642Z,8.13
2018-09-21T08:49:37.747Z,7.60
2018-09-21T08:52:05.372Z,7.17
2018-09-21T08:54:33.174Z,8.20
2018-09-21T08:57:01.242Z,7.73
2018-09-21T08:59:29.279Z,7.80
2018-09-21T09:01:57.168Z,8.27
2018-09-21T09:04:25.877Z,7.37
2018-09-21T09:06:53.455Z,6.77
2018-09-21T09:09:21.095Z,6.73
2018-09-21T09:11:48.840Z,6.83
2018-09-21T09:14:17.302Z,7.10
2018-09-21T09:16:44.923Z,7.47
2018-09-21T09:19:12.614Z,7.13
2018-09-21T09:21:40.457Z,7.03
2018-09-21T09:24:08.251Z,6.70
2018-09-21T09:26:36.055Z,7.20
2018-09-21T09:29:03.565Z,7.20
2018-09-21T09:31:31.369Z,7.30
2018-09-21T09:33:59.136Z,6.63
2018-09-21T09:39:08.477Z,6.77
2018-09-21T09:41:36.146Z,7.00
2018-09-21T09:44:04.442Z,6.70
2018-09-21T09:46:32.162Z,6.43
2018-09-21T09:49:00.044Z,7.30
2018-09-21T09:51:27.871Z,6.57
2018-09-21T09:53:55.764Z,7.07
2018-09-21T09:56:23.540Z,7.10
2018-09-21T09:58:52.935Z,7.10
2018-09-21T10:01:27.624Z,6.63
2018-09-21T10:04:01.649Z,7.07
2018-09-21T10:09:08.738Z,7.40
2018-09-21T10:11:45.695Z,6.90
2018-09-21T10:14:18.673Z,7.47
2018-09-21T10:16:51.442Z,7.00
2018-09-21T10:19:23.478Z,7.50
2018-09-21T10:21:52.394Z,7.10
2018-09-21T10:24:25.114Z,7.27
2018-09-21T10:26:58.715Z,6.70
2018-09-21T10:29:29.367Z,7.57
2018-09-21T10:31:58.879Z,7.40
2018-09-21T10:34:36.275Z,7.27
2018-09-21T10:37:10.071Z,6.73
2018-09-21T10:47:39.232Z,6.80
2018-09-21T10:50:17.029Z,7.00
2018-09-21T10:52:46.890Z,7.57
2018-09-21T10:55:21.357Z,6.60
2018-09-21T11:00:31.916Z,6.97
2018-09-21T11:03:04.119Z,6.20
2018-09-21T11:05:38.370Z,6.87
2018-09-21T11:08:07.318Z,6.37
2018-09-21T11:13:17.822Z,6.50
2018-09-21T11:15:51.255Z,6.20
2018-09-21T11:18:30.318Z,6.83
2018-09-21T11:23:40.467Z,6.13
2018-09-21T11:26:08.353Z,6.73
2018-09-21T11:28:36.141Z,6.43
2018-09-21T11:31:04.008Z,6.93
2018-09-21T11:33:31.779Z,6.53
2018-09-21T11:35:59.856Z,6.17
2018-09-21T11:38:44.456Z,6.83
2018-09-21T11:41:12.188Z,6.33
2018-09-21T11:43:40.279Z,6.47
2018-09-21T11:46:08.461Z,7.07
2018-09-21T11:48:36.949Z,6.60
2018-09-21T11:51:04.799Z,6.80
2018-09-21T11:53:32.597Z,7.33
2018-09-21T11:56:00.533Z,6.37
2018-09-21T11:58:28.397Z,5.50
2018-09-21T12:00:56.443Z,6.30
2018-09-21T12:03:24.451Z,6.33
2018-09-21T12:05:52.676Z,6.10
2018-09-21T12:08:20.741Z,5.63
2018-09-21T12:10:48.730Z,5.20
2018-09-21T12:13:16.831Z,5.10
2018-09-21T12:15:44.876Z,4.57
2018-09-21T12:18:13.185Z,4.70
2018-09-21T12:20:45.690Z,4.30
2018-09-21T12:23:13.806Z,4.83
2018-09-21T12:25:41.640Z,4.70
2018-09-21T12:28:09.609Z,4.13
2018-09-21T12:30:40.832Z,4.10
2018-09-21T12:33:08.617Z,5.07
2018-09-21T12:35:36.612Z,3.90
2018-09-21T12:38:04.456Z,4.57
2018-09-21T12:40:32.227Z,4.30
2018-09-21T12:42:59.933Z,4.00
2018-09-21T12:45:27.729Z,4.23
2018-09-21T12:47:55.620Z,3.90
2018-09-21T12:50:24.476Z,3.83
2018-09-21T12:52:53.438Z,3.57
2018-09-21T12:55:21.392Z,3.37
2018-09-21T12:57:50.059Z,3.47
2018-09-21T13:00:19.935Z,3.70
2018-09-21T13:02:49.215Z,4.00
2018-09-21T13:05:17.163Z,3.40
2018-09-21T13:07:45.533Z,3.60
2018-09-21T13:10:13.258Z,3.73
2018-09-21T13:12:41.220Z,3.67
2018-09-21T13:15:09.234Z,3.70
2018-09-21T13:17:37.070Z,3.90
2018-09-21T13:20:04.745Z,3.53
2018-09-21T13:22:32.611Z,3.27
2018-09-21T13:25:00.436Z,3.30
2018-09-21T13:27:28.303Z,3.43
2018-09-21T13:29:56.221Z,3.10
2018-09-21T13:32:24.468Z,3.63
2018-09-21T13:34:52.020Z,3.03
2018-09-21T13:37:19.671Z,2.97
2018-09-21T13:39:47.458Z,2.90
2018-09-21T13:42:15.406Z,3.27
2018-09-21T13:44:43.104Z,3.17
2018-09-21T13:47:10.942Z,3.10
2018-09-21T13:49:38.840Z,3.23
2018-09-21T13:52:06.684Z,2.67
2018-09-21T13:54:34.332Z,2.60
2018-09-21T13:57:02.066Z,2.57
2018-09-21T13:59:29.804Z,3.20
2018-09-21T14:01:58.345Z,2.97
2018-09-21T14:04:26.091Z,2.93
2018-09-21T14:06:54.154Z,2.90
2018-09-21T14:09:23.057Z,3.17
2018-09-21T14:11:50.969Z,3.07
2018-09-21T14:14:19.185Z,3.40
2018-09-21T14:16:46.867Z,3.20
2018-09-21T14:19:15.002Z,3.23
2018-09-21T14:21:43.304Z,3.43
2018-09-21T14:24:11.171Z,3.63
2018-09-21T14:26:38.924Z,2.93
2018-09-21T14:29:06.804Z,3.53
2018-09-21T14:31:34.477Z,3.90
2018-09-21T14:34:02.072Z,3.03
2018-09-21T14:36:36.322Z,2.40
2018-09-21T14:39:05.482Z,1.47
2018-09-21T14:41:33.302Z,1.50
2018-09-21T14:44:02.815Z,1.20
2018-09-21T14:46:37.207Z,0.87
2018-09-21T14:49:05.302Z,1.00
2018-09-21T14:51:34.291Z,0.90
2018-09-21T14:54:01.900Z,0.90
2018-09-21T14:56:29.897Z,0.90
2018-09-21T14:58:58.127Z,1.00
2018-09-21T15:01:26.366Z,0.63
2018-09-21T15:03:54.133Z,1.20
2018-09-21T15:06:22.413Z,0.80
2018-09-21T15:08:51.277Z,0.97
2018-09-21T15:11:19.214Z,1.10
2018-09-21T15:13:47.162Z,1.10
2018-09-21T15:16:16.718Z,0.87
2018-09-21T15:18:44.964Z,1.30
2018-09-21T15:21:13.987Z,1.37
2018-09-21T15:23:41.867Z,0.90
2018-09-21T15:26:10.344Z,1.50
2018-09-21T15:28:39.464Z,1.00
2018-09-21T15:31:07.672Z,1.20
2018-09-21T15:33:36.601Z,1.13
2018-09-21T15:39:01.595Z,1.17
2018-09-21T15:41:32.416Z,1.67
2018-09-21T15:45:41.136Z,1.50
2018-09-21T15:48:10.114Z,1.20
2018-09-21T15:50:38.146Z,1.30
2018-09-21T15:53:06.265Z,1.10
2018-09-21T15:55:34.607Z,1.27
2018-09-21T15:58:02.831Z,1.17
2018-09-21T16:00:32.942Z,1.47
2018-09-21T16:03:01.783Z,1.27
2018-09-21T16:05:30.188Z,2.20
2018-09-21T16:07:58.645Z,1.40
2018-09-21T16:10:29.752Z,1.80
2018-09-21T16:13:00.100Z,1.30
2018-09-21T16:15:30.086Z,1.70
2018-09-21T16:17:58.806Z,1.40
2018-09-21T16:20:26.906Z,1.10
2018-09-21T16:22:54.880Z,1.50
2018-09-21T16:25:23.475Z,2.03
2018-09-21T16:27:51.502Z,1.40
2018-09-21T16:30:19.814Z,1.67
2018-09-21T16:32:47.782Z,1.50
2018-09-21T16:35:16.023Z,1.20
2018-09-21T16:37:44.033Z,1.50
2018-09-21T16:40:12.848Z,1.47
2018-09-21T16:42:41.022Z,1.67
2018-09-21T16:45:10.129Z,1.17
2018-09-21T16:47:41.701Z,1.40
2018-09-21T16:50:09.155Z,1.60
2018-09-21T16:52:36.972Z,1.40
2018-09-21T16:55:05.292Z,1.43
2018-09-21T16:57:33.006Z,1.43
2018-09-21T17:00:00.490Z,1.77
2018-09-21T17:02:27.969Z,1.60
2018-09-21T17:04:55.407Z,1.43
2018-09-21T17:07:22.856Z,2.03
2018-09-21T17:09:50.304Z,1.53
2018-09-21T17:12:18.098Z,1.60
2018-09-21T17:14:45.602Z,1.63
2018-09-21T17:17:13.209Z,1.20
2018-09-21T17:19:40.669Z,1.83
2018-09-21T17:22:08.402Z,1.63
2018-09-21T17:24:35.766Z,1.50
2018-09-21T17:27:03.242Z,1.90
2018-09-21T17:29:30.652Z,1.83
2018-09-21T17:31:58.195Z,1.87
2018-09-21T17:34:25.696Z,3.07
2018-09-21T17:36:53.076Z,1.90
2018-09-21T17:39:20.684Z,2.50
2018-09-21T17:41:48.170Z,1.97
2018-09-21T17:44:15.582Z,2.00
2018-09-21T17:46:43.065Z,2.33
2018-09-21T17:49:10.552Z,2.10
2018-09-21T17:51:38.124Z,1.83
2018-09-21T17:54:05.665Z,1.90
2018-09-21T17:56:35.677Z,1.90
2018-09-21T17:59:03.494Z,1.83
2018-09-21T18:01:31.259Z,1.77
2018-09-21T18:03:59.808Z,2.37
2018-09-21T18:06:29.656Z,2.40
2018-09-21T18:08:57.192Z,2.87
2018-09-21T18:11:25.045Z,2.17
2018-09-21T18:13:54.543Z,1.63
2018-09-21T18:16:22.083Z,2.07
2018-09-21T18:21:36.012Z,2.70
2018-09-21T18:24:04.047Z,2.20
2018-09-21T18:26:39.866Z,2.03
2018-09-21T18:29:07.593Z,2.17
2018-09-21T18:31:35.514Z,2.27
2018-09-21T18:34:03.437Z,2.10
2018-09-21T18:36:31.034Z,2.33
2018-09-21T18:38:58.605Z,2.93
2018-09-21T18:41:26.157Z,2.47
2018-09-21T18:43:53.689Z,3.13
2018-09-21T18:46:26.845Z,2.10
2018-09-21T18:48:55.345Z,2.43
2018-09-21T18:51:24.305Z,2.10
2018-09-21T18:53:52.452Z,2.27
2018-09-21T18:56:21.800Z,2.20
2018-09-21T18:58:53.622Z,2.60
2018-09-21T19:01:22.203Z,2.37
2018-09-21T19:03:49.864Z,2.40
2018-09-21T19:06:19.336Z,2.10
2018-09-21T19:08:47.250Z,2.00
2018-09-21T19:11:15.118Z,2.53
2018-09-21T19:13:42.974Z,2.30
2018-09-21T19:16:10.585Z,2.27
2018-09-21T19:18:39.266Z,2.23
2018-09-21T19:21:08.522Z,2.70
2018-09-21T19:23:36.842Z,2.87
2018-09-21T19:26:11.472Z,2.93
2018-09-21T19:28:39.537Z,1.97
2018-09-21T19:31:07.671Z,2.17
2018-09-21T19:33:37.113Z,2.30
2018-09-21T19:36:04.873Z,2.00
2018-09-21T19:38:32.368Z,2.53
2018-09-21T19:41:00.587Z,2.60
2018-09-21T19:43:29.134Z,2.57
2018-09-21T19:45:57.082Z,2.30
2018-09-21T19:48:24.695Z,2.17
2018-09-21T19:50:52.239Z,2.30
2018-09-21T19:53:20.976Z,2.60
2018-09-21T19:55:48.828Z,1.97
2018-09-21T19:58:16.750Z,2.30
2018-09-21T20:00:44.961Z,2.37
2018-09-21T20:03:12.558Z,2.50
2018-09-21T20:05:41.437Z,1.83
2018-09-21T20:08:09.737Z,2.37
2018-09-21T20:10:37.491Z,1.87
2018-09-21T20:13:10.337Z,2.03
2018-09-21T20:15:38.438Z,1.93
2018-09-21T20:18:06.122Z,2.40
2018-09-21T20:20:33.609Z,1.90
2018-09-21T20:25:57.568Z,2.13
2018-09-21T20:28:25.427Z,1.90
2018-09-21T20:30:58.060Z,1.70
2018-09-21T20:33:29.409Z,1.80
2018-09-21T20:35:58.473Z,2.73
2018-09-21T20:38:26.425Z,2.00
2018-09-21T20:40:56.070Z,1.97
2018-09-21T20:43:23.666Z,1.50
2018-09-21T20:45:50.971Z,2.20
2018-09-21T20:48:18.381Z,1.97
2018-09-21T20:50:45.784Z,1.90
2018-09-21T20:53:14.583Z,2.33
2018-09-21T20:55:42.463Z,1.53
2018-09-21T20:58:10.193Z,2.20
2018-09-21T21:00:37.568Z,1.67
2018-09-21T21:03:05.193Z,2.00
2018-09-21T21:05:32.590Z,2.00
2018-09-21T21:07:59.941Z,1.97
2018-09-21T21:10:27.822Z,1.73
2018-09-21T21:12:55.221Z,2.13
2018-09-21T21:15:23.216Z,2.03
2018-09-21T21:17:50.556Z,2.10
2018-09-21T21:20:18.492Z,1.60
2018-09-21T21:22:47.956Z,1.90
2018-09-21T21:25:15.380Z,2.00
2018-09-21T21:27:42.767Z,2.17
2018-09-21T21:30:10.422Z,1.63
2018-09-21T21:32:37.844Z,2.10
2018-09-21T21:35:05.287Z,2.23
2018-09-21T21:37:33.209Z,1.97
2018-09-21T21:40:00.676Z,1.97
2018-09-21T21:42:28.147Z,2.47
2018-09-21T21:44:55.570Z,2.37
2018-09-21T21:47:22.987Z,2.00
2018-09-21T21:49:50.352Z,2.03
2018-09-21T21:52:17.725Z,1.90
2018-09-21T21:54:45.483Z,1.97
2018-09-21T21:57:12.983Z,1.87
2018-09-21T21:59:40.373Z,2.13
2018-09-21T22:02:11.840Z,2.50
2018-09-21T22:04:39.359Z,2.17
2018-09-21T22:07:07.292Z,2.30
2018-09-21T22:09:34.841Z,2.97
2018-09-21T22:12:07.524Z,4.63
2018-09-21T22:14:35.210Z,4.30
2018-09-21T22:17:02.739Z,3.40
2018-09-21T22:19:30.393Z,3.03
2018-09-21T22:21:58.557Z,2.30
2018-09-21T22:24:27.607Z,2.23
2018-09-21T22:26:55.156Z,2.30
2018-09-21T22:29:22.798Z,2.27
2018-09-21T22:31:50.218Z,2.10
2018-09-21T22:34:17.754Z,2.30
2018-09-21T22:36:45.174Z,2.20
2018-09-21T22:39:12.677Z,2.03
2018-09-21T22:41:40.093Z,2.20
2018-09-21T22:44:07.475Z,2.60
2018-09-21T22:46:35.701Z,2.67
2018-09-21T22:49:05.668Z,2.40
2018-09-21T22:51:33.075Z,2.13
2018-09-21T22:54:00.406Z,2.57
2018-09-21T22:56:28.902Z,2.30
2018-09-21T22:58:57.213Z,2.13
2018-09-21T23:01:24.747Z,1.70
2018-09-21T23:03:52.107Z,2.10
2018-09-21T23:06:19.624Z,2.10
2018-09-21T23:08:46.902Z,2.53
2018-09-21T23:11:14.521Z,2.20
2018-09-21T23:13:41.918Z,1.90
2018-09-21T23:16:09.340Z,2.40
2018-09-21T23:18:36.968Z,2.03
2018-09-21T23:21:04.317Z,1.70
2018-09-21T23:23:31.750Z,3.17
2018-09-21T23:25:59.175Z,1.67
2018-09-21T23:28:26.488Z,2.80
2018-09-21T23:30:53.996Z,2.03
2018-09-21T23:33:21.376Z,2.17
2018-09-21T23:35:48.743Z,1.80
2018-09-21T23:38:16.207Z,1.90
2018-09-21T23:40:43.564Z,2.00
2018-09-21T23:43:10.945Z,2.13
2018-09-21T23:45:38.512Z,2.23
2018-09-21T23:48:05.922Z,2.10
2018-09-21T23:50:33.288Z,1.70
2018-09-21T23:53:00.639Z,1.90
2018-09-21T23:55:28.079Z,2.40
2018-09-21T23:57:55.442Z,1.80
